sensor_id;sensor_type;location;lat;lon;timestamp;P1;durP1;ratioP1;P2;durP2;ratioP2
39346;SDS011;26262;49.836;6.632;2022-12-16T00:01:18;25.27;;;14.07;;
39346;SDS011;26262;49.836;6.632;2022-12-16T00:03:50;25.40;;;14.63;;
39346;SDS011;26262;49.836;6.632;2022-12-16T00:06:17;24.00;;;14.20;;
39346;SDS011;26262;49.836;6.632;2022-12-16T00:08:43;24.50;;;13.87;;
39346;SDS011;26262;49.836;6.632;2022-12-16T00:11:08;24.13;;;12.83;;
39346;SDS011;26262;49.836;6.632;2022-12-16T00:13:35;26.43;;;14.07;;
39346;SDS011;26262;49.836;6.632;2022-12-16T00:16:05;28.38;;;15.45;;
39346;SDS011;26262;49.836;6.632;2022-12-16T00:18:32;22.90;;;13.40;;
39346;SDS011;26262;49.836;6.632;2022-12-16T00:20:57;22.17;;;12.80;;
39346;SDS011;26262;49.836;6.632;2022-12-16T00:23:24;22.97;;;13.07;;
39346;SDS011;26262;49.836;6.632;2022-12-16T00:25:49;24.60;;;13.00;;
39346;SDS011;26262;49.836;6.632;2022-12-16T00:28:16;21.00;;;11.50;;
39346;SDS011;26262;49.836;6.632;2022-12-16T00:30:42;20.80;;;11.63;;
39346;SDS011;26262;49.836;6.632;2022-12-16T00:33:09;20.17;;;11.47;;
39346;SDS011;26262;49.836;6.632;2022-12-16T00:35:34;22.83;;;12.27;;
39346;SDS011;26262;49.836;6.632;2022-12-16T00:38:00;21.20;;;11.10;;
39346;SDS011;26262;49.836;6.632;2022-12-16T00:40:26;21.03;;;12.23;;
39346;SDS011;26262;49.836;6.632;2022-12-16T00:42:52;21.50;;;11.67;;
39346;SDS011;26262;49.836;6.632;2022-12-16T00:45:18;18.37;;;10.77;;
39346;SDS011;26262;49.836;6.632;2022-12-16T00:47:43;21.60;;;10.77;;
39346;SDS011;26262;49.836;6.632;2022-12-16T00:50:09;19.10;;;10.23;;
39346;SDS011;26262;49.836;6.632;2022-12-16T00:52:35;18.13;;;10.57;;
39346;SDS011;26262;49.836;6.632;2022-12-16T00:55:01;20.33;;;10.60;;
39346;SDS011;26262;49.836;6.632;2022-12-16T00:57:26;20.37;;;10.90;;
39346;SDS011;26262;49.836;6.632;2022-12-16T00:59:52;21.67;;;10.97;;
39346;SDS011;26262;49.836;6.632;2022-12-16T01:02:17;19.30;;;11.00;;
39346;SDS011;26262;49.836;6.632;2022-12-16T01:04:43;19.30;;;10.70;;
39346;SDS011;26262;49.836;6.632;2022-12-16T01:07:08;19.33;;;10.73;;
39346;SDS011;26262;49.836;6.632;2022-12-16T01:09:34;19.73;;;9.93;;
39346;SDS011;26262;49.836;6.632;2022-12-16T01:12:00;19.47;;;10.00;;
39346;SDS011;26262;49.836;6.632;2022-12-16T01:14:26;20.47;;;10.17;;
39346;SDS011;26262;49.836;6.632;2022-12-16T01:16:51;16.20;;;10.20;;
39346;SDS011;26262;49.836;6.632;2022-12-16T01:19:17;19.37;;;9.67;;
39346;SDS011;26262;49.836;6.632;2022-12-16T01:21:42;18.63;;;9.70;;
39346;SDS011;26262;49.836;6.632;2022-12-16T01:24:09;17.97;;;9.57;;
39346;SDS011;26262;49.836;6.632;2022-12-16T01:26:35;17.23;;;9.53;;
39346;SDS011;26262;49.836;6.632;2022-12-16T01:29:00;18.27;;;9.37;;
39346;SDS011;26262;49.836;6.632;2022-12-16T01:31:26;16.87;;;8.83;;
39346;SDS011;26262;49.836;6.632;2022-12-16T01:33:51;16.67;;;8.73;;
39346;SDS011;26262;49.836;6.632;2022-12-16T01:36:18;18.50;;;9.07;;
39346;SDS011;26262;49.836;6.632;2022-12-16T01:38:44;17.50;;;9.53;;
39346;SDS011;26262;49.836;6.632;2022-12-16T01:41:10;17.33;;;9.17;;
39346;SDS011;26262;49.836;6.632;2022-12-16T01:43:38;15.83;;;8.97;;
39346;SDS011;26262;49.836;6.632;2022-12-16T01:48:44;17.73;;;9.40;;
39346;SDS011;26262;49.836;6.632;2022-12-16T01:51:26;18.67;;;9.47;;
39346;SDS011;26262;49.836;6.632;2022-12-16T01:54:20;15.05;;;8.00;;
39346;SDS011;26262;49.836;6.632;2022-12-16T01:56:50;18.17;;;9.40;;
39346;SDS011;26262;49.836;6.632;2022-12-16T01:59:20;17.87;;;9.43;;
39346;SDS011;26262;49.836;6.632;2022-12-16T02:01:47;17.47;;;9.17;;
39346;SDS011;26262;49.836;6.632;2022-12-16T02:04:12;16.80;;;8.90;;
39346;SDS011;26262;49.836;6.632;2022-12-16T02:06:38;19.33;;;9.77;;
39346;SDS011;26262;49.836;6.632;2022-12-16T02:09:04;15.80;;;9.07;;
39346;SDS011;26262;49.836;6.632;2022-12-16T02:20:19;15.67;;;8.67;;
39346;SDS011;26262;49.836;6.632;2022-12-16T02:32:29;17.20;;;9.17;;
39346;SDS011;26262;49.836;6.632;2022-12-16T02:38:20;16.77;;;9.18;;
39346;SDS011;26262;49.836;6.632;2022-12-16T02:46:05;18.37;;;10.27;;
39346;SDS011;26262;49.836;6.632;2022-12-16T02:48:32;20.67;;;10.82;;
39346;SDS011;26262;49.836;6.632;2022-12-16T02:50:58;17.40;;;9.37;;
39346;SDS011;26262;49.836;6.632;2022-12-16T02:53:24;22.73;;;9.30;;
39346;SDS011;26262;49.836;6.632;2022-12-16T02:56:02;18.60;;;9.37;;
39346;SDS011;26262;49.836;6.632;2022-12-16T03:04:01;18.57;;;10.27;;
39346;SDS011;26262;49.836;6.632;2022-12-16T03:06:40;17.83;;;10.07;;
39346;SDS011;26262;49.836;6.632;2022-12-16T03:09:09;20.77;;;9.87;;
39346;SDS011;26262;49.836;6.632;2022-12-16T03:11:38;19.33;;;9.43;;
39346;SDS011;26262;49.836;6.632;2022-12-16T03:14:07;21.13;;;9.93;;
39346;SDS011;26262;49.836;6.632;2022-12-16T03:16:37;17.87;;;9.57;;
39346;SDS011;26262;49.836;6.632;2022-12-16T03:19:04;19.77;;;9.70;;
39346;SDS011;26262;49.836;6.632;2022-12-16T03:21:35;17.87;;;9.07;;
39346;SDS011;26262;49.836;6.632;2022-12-16T03:24:07;19.67;;;9.43;;
39346;SDS011;26262;49.836;6.632;2022-12-16T03:26:38;17.43;;;8.77;;
39346;SDS011;26262;49.836;6.632;2022-12-16T03:29:40;18.53;;;8.47;;
39346;SDS011;26262;49.836;6.632;2022-12-16T03:35:11;14.40;;;8.23;;
39346;SDS011;26262;49.836;6.632;2022-12-16T03:37:43;23.67;;;9.43;;
39346;SDS011;26262;49.836;6.632;2022-12-16T03:40:12;18.97;;;8.73;;
39346;SDS011;26262;49.836;6.632;2022-12-16T03:42:38;18.83;;;9.93;;
39346;SDS011;26262;49.836;6.632;2022-12-16T03:45:06;16.08;;;8.80;;
39346;SDS011;26262;49.836;6.632;2022-12-16T03:47:36;17.13;;;8.40;;
39346;SDS011;26262;49.836;6.632;2022-12-16T03:50:02;18.30;;;9.00;;
39346;SDS011;26262;49.836;6.632;2022-12-16T03:52:28;18.23;;;8.57;;
39346;SDS011;26262;49.836;6.632;2022-12-16T03:54:53;17.30;;;8.57;;
39346;SDS011;26262;49.836;6.632;2022-12-16T03:57:19;18.27;;;8.77;;
39346;SDS011;26262;49.836;6.632;2022-12-16T03:59:44;18.00;;;9.17;;
39346;SDS011;26262;49.836;6.632;2022-12-16T04:02:10;16.67;;;8.83;;
39346;SDS011;26262;49.836;6.632;2022-12-16T04:04:35;20.40;;;9.37;;
39346;SDS011;26262;49.836;6.632;2022-12-16T04:07:01;18.77;;;9.57;;
39346;SDS011;26262;49.836;6.632;2022-12-16T04:09:46;19.03;;;9.00;;
39346;SDS011;26262;49.836;6.632;2022-12-16T04:12:13;15.77;;;8.03;;
39346;SDS011;26262;49.836;6.632;2022-12-16T04:14:57;17.20;;;8.77;;
39346;SDS011;26262;49.836;6.632;2022-12-16T04:17:41;19.07;;;9.33;;
39346;SDS011;26262;49.836;6.632;2022-12-16T04:20:27;19.67;;;9.77;;
39346;SDS011;26262;49.836;6.632;2022-12-16T04:23:15;18.40;;;9.23;;
39346;SDS011;26262;49.836;6.632;2022-12-16T04:25:59;16.87;;;9.17;;
39346;SDS011;26262;49.836;6.632;2022-12-16T04:28:25;17.67;;;9.17;;
39346;SDS011;26262;49.836;6.632;2022-12-16T04:30:50;15.60;;;8.80;;
39346;SDS011;26262;49.836;6.632;2022-12-16T04:33:16;19.97;;;9.57;;
39346;SDS011;26262;49.836;6.632;2022-12-16T04:36:00;18.37;;;9.33;;
39346;SDS011;26262;49.836;6.632;2022-12-16T04:38:44;19.20;;;8.60;;
39346;SDS011;26262;49.836;6.632;2022-12-16T04:41:28;16.57;;;9.07;;
39346;SDS011;26262;49.836;6.632;2022-12-16T04:44:13;19.07;;;8.60;;
39346;SDS011;26262;49.836;6.632;2022-12-16T04:46:57;18.50;;;8.83;;
39346;SDS011;26262;49.836;6.632;2022-12-16T04:49:41;17.40;;;9.50;;
39346;SDS011;26262;49.836;6.632;2022-12-16T04:52:25;19.63;;;9.23;;
39346;SDS011;26262;49.836;6.632;2022-12-16T04:55:09;18.53;;;8.57;;
39346;SDS011;26262;49.836;6.632;2022-12-16T04:57:54;17.27;;;9.33;;
39346;SDS011;26262;49.836;6.632;2022-12-16T05:00:40;17.73;;;8.63;;
39346;SDS011;26262;49.836;6.632;2022-12-16T05:03:25;18.47;;;8.73;;
39346;SDS011;26262;49.836;6.632;2022-12-16T05:06:10;18.70;;;9.30;;
39346;SDS011;26262;49.836;6.632;2022-12-16T05:08:55;16.93;;;8.63;;
39346;SDS011;26262;49.836;6.632;2022-12-16T05:11:55;18.83;;;9.27;;
39346;SDS011;26262;49.836;6.632;2022-12-16T05:14:40;20.50;;;9.37;;
39346;SDS011;26262;49.836;6.632;2022-12-16T05:17:24;18.57;;;9.80;;
39346;SDS011;26262;49.836;6.632;2022-12-16T05:20:08;20.57;;;9.50;;
39346;SDS011;26262;49.836;6.632;2022-12-16T05:22:55;17.53;;;9.63;;
39346;SDS011;26262;49.836;6.632;2022-12-16T05:25:39;18.75;;;8.93;;
39346;SDS011;26262;49.836;6.632;2022-12-16T05:28:23;17.50;;;10.07;;
39346;SDS011;26262;49.836;6.632;2022-12-16T05:31:07;17.40;;;9.10;;
39346;SDS011;26262;49.836;6.632;2022-12-16T05:33:51;20.03;;;9.90;;
39346;SDS011;26262;49.836;6.632;2022-12-16T05:36:35;19.20;;;9.60;;
39346;SDS011;26262;49.836;6.632;2022-12-16T05:39:20;21.23;;;9.40;;
39346;SDS011;26262;49.836;6.632;2022-12-16T05:42:04;20.97;;;10.50;;
39346;SDS011;26262;49.836;6.632;2022-12-16T05:44:48;19.03;;;9.77;;
39346;SDS011;26262;49.836;6.632;2022-12-16T05:47:32;20.60;;;10.43;;
39346;SDS011;26262;49.836;6.632;2022-12-16T05:50:16;18.77;;;9.10;;
39346;SDS011;26262;49.836;6.632;2022-12-16T05:53:00;17.53;;;9.63;;
39346;SDS011;26262;49.836;6.632;2022-12-16T05:55:44;19.77;;;9.40;;
39346;SDS011;26262;49.836;6.632;2022-12-16T05:58:28;17.07;;;8.80;;
39346;SDS011;26262;49.836;6.632;2022-12-16T06:01:12;20.03;;;9.97;;
39346;SDS011;26262;49.836;6.632;2022-12-16T06:03:57;15.53;;;8.53;;
39346;SDS011;26262;49.836;6.632;2022-12-16T06:06:41;16.93;;;8.63;;
39346;SDS011;26262;49.836;6.632;2022-12-16T06:09:25;16.60;;;9.53;;
39346;SDS011;26262;49.836;6.632;2022-12-16T06:12:09;17.93;;;8.07;;
39346;SDS011;26262;49.836;6.632;2022-12-16T06:14:53;17.03;;;8.57;;
39346;SDS011;26262;49.836;6.632;2022-12-16T06:17:40;18.43;;;8.90;;
39346;SDS011;26262;49.836;6.632;2022-12-16T06:20:25;15.23;;;7.73;;
39346;SDS011;26262;49.836;6.632;2022-12-16T06:23:10;16.80;;;8.90;;
39346;SDS011;26262;49.836;6.632;2022-12-16T06:25:54;14.70;;;7.90;;
39346;SDS011;26262;49.836;6.632;2022-12-16T06:28:38;23.30;;;10.93;;
39346;SDS011;26262;49.836;6.632;2022-12-16T06:31:22;20.80;;;11.20;;
39346;SDS011;26262;49.836;6.632;2022-12-16T06:34:06;20.53;;;10.07;;
39346;SDS011;26262;49.836;6.632;2022-12-16T06:36:50;20.87;;;10.97;;
39346;SDS011;26262;49.836;6.632;2022-12-16T06:39:34;20.77;;;11.33;;
39346;SDS011;26262;49.836;6.632;2022-12-16T06:42:18;21.93;;;10.50;;
39346;SDS011;26262;49.836;6.632;2022-12-16T06:45:03;18.10;;;8.73;;
39346;SDS011;26262;49.836;6.632;2022-12-16T06:47:47;20.43;;;10.30;;
39346;SDS011;26262;49.836;6.632;2022-12-16T06:50:30;23.30;;;10.80;;
39346;SDS011;26262;49.836;6.632;2022-12-16T06:53:14;22.07;;;10.20;;
39346;SDS011;26262;49.836;6.632;2022-12-16T06:55:58;20.40;;;9.37;;
39346;SDS011;26262;49.836;6.632;2022-12-16T06:58:42;22.77;;;10.93;;
39346;SDS011;26262;49.836;6.632;2022-12-16T07:01:27;21.53;;;9.57;;
39346;SDS011;26262;49.836;6.632;2022-12-16T07:04:15;18.43;;;9.80;;
39346;SDS011;26262;49.836;6.632;2022-12-16T07:07:00;23.23;;;10.60;;
39346;SDS011;26262;49.836;6.632;2022-12-16T07:09:44;21.10;;;11.20;;
39346;SDS011;26262;49.836;6.632;2022-12-16T07:12:28;21.17;;;10.73;;
39346;SDS011;26262;49.836;6.632;2022-12-16T07:15:11;26.13;;;12.13;;
39346;SDS011;26262;49.836;6.632;2022-12-16T07:17:56;33.60;;;14.57;;
39346;SDS011;26262;49.836;6.632;2022-12-16T07:20:40;39.93;;;16.37;;
39346;SDS011;26262;49.836;6.632;2022-12-16T07:23:24;35.13;;;14.80;;
39346;SDS011;26262;49.836;6.632;2022-12-16T07:26:08;28.67;;;12.93;;
39346;SDS011;26262;49.836;6.632;2022-12-16T07:28:52;25.53;;;13.27;;
39346;SDS011;26262;49.836;6.632;2022-12-16T07:31:37;23.40;;;12.60;;
39346;SDS011;26262;49.836;6.632;2022-12-16T07:34:21;23.47;;;11.80;;
39346;SDS011;26262;49.836;6.632;2022-12-16T07:37:06;24.20;;;11.50;;
39346;SDS011;26262;49.836;6.632;2022-12-16T07:39:49;20.63;;;10.77;;
39346;SDS011;26262;49.836;6.632;2022-12-16T07:42:34;19.63;;;10.23;;
39346;SDS011;26262;49.836;6.632;2022-12-16T07:45:18;21.43;;;11.07;;
39346;SDS011;26262;49.836;6.632;2022-12-16T07:48:02;22.97;;;10.73;;
39346;SDS011;26262;49.836;6.632;2022-12-16T07:50:46;20.87;;;10.70;;
39346;SDS011;26262;49.836;6.632;2022-12-16T07:53:30;23.60;;;11.27;;
39346;SDS011;26262;49.836;6.632;2022-12-16T07:56:14;19.93;;;10.57;;
39346;SDS011;26262;49.836;6.632;2022-12-16T07:58:58;22.43;;;10.67;;
39346;SDS011;26262;49.836;6.632;2022-12-16T08:01:42;19.47;;;9.80;;
39346;SDS011;26262;49.836;6.632;2022-12-16T08:04:26;20.40;;;10.30;;
39346;SDS011;26262;49.836;6.632;2022-12-16T08:07:10;18.10;;;10.07;;
39346;SDS011;26262;49.836;6.632;2022-12-16T08:09:54;17.60;;;8.43;;
39346;SDS011;26262;49.836;6.632;2022-12-16T08:12:38;20.60;;;10.77;;
39346;SDS011;26262;49.836;6.632;2022-12-16T08:15:22;18.57;;;9.50;;
39346;SDS011;26262;49.836;6.632;2022-12-16T08:18:07;18.97;;;9.97;;
39346;SDS011;26262;49.836;6.632;2022-12-16T08:20:51;20.00;;;9.83;;
39346;SDS011;26262;49.836;6.632;2022-12-16T08:23:35;19.10;;;9.53;;
39346;SDS011;26262;49.836;6.632;2022-12-16T08:26:19;21.80;;;10.53;;
39346;SDS011;26262;49.836;6.632;2022-12-16T08:29:03;20.77;;;11.83;;
39346;SDS011;26262;49.836;6.632;2022-12-16T08:31:47;21.43;;;11.27;;
39346;SDS011;26262;49.836;6.632;2022-12-16T08:34:31;25.03;;;12.13;;
39346;SDS011;26262;49.836;6.632;2022-12-16T08:37:15;21.43;;;11.67;;
39346;SDS011;26262;49.836;6.632;2022-12-16T08:39:59;20.80;;;9.97;;
39346;SDS011;26262;49.836;6.632;2022-12-16T08:42:43;21.30;;;11.03;;
39346;SDS011;26262;49.836;6.632;2022-12-16T08:45:27;22.10;;;11.97;;
39346;SDS011;26262;49.836;6.632;2022-12-16T08:48:12;22.93;;;11.70;;
39346;SDS011;26262;49.836;6.632;2022-12-16T08:50:57;22.00;;;11.60;;
39346;SDS011;26262;49.836;6.632;2022-12-16T08:53:44;21.80;;;11.77;;
39346;SDS011;26262;49.836;6.632;2022-12-16T08:56:28;20.90;;;10.83;;
39346;SDS011;26262;49.836;6.632;2022-12-16T08:59:13;21.33;;;11.23;;
39346;SDS011;26262;49.836;6.632;2022-12-16T09:01:57;21.70;;;11.03;;
39346;SDS011;26262;49.836;6.632;2022-12-16T09:04:41;22.17;;;10.63;;
39346;SDS011;26262;49.836;6.632;2022-12-16T09:07:24;21.67;;;11.17;;
39346;SDS011;26262;49.836;6.632;2022-12-16T09:10:08;20.27;;;11.13;;
39346;SDS011;26262;49.836;6.632;2022-12-16T09:12:52;22.47;;;11.27;;
39346;SDS011;26262;49.836;6.632;2022-12-16T09:15:36;23.27;;;11.33;;
39346;SDS011;26262;49.836;6.632;2022-12-16T09:18:20;22.07;;;11.50;;
39346;SDS011;26262;49.836;6.632;2022-12-16T09:21:04;20.60;;;10.77;;
39346;SDS011;26262;49.836;6.632;2022-12-16T09:23:48;21.37;;;11.80;;
39346;SDS011;26262;49.836;6.632;2022-12-16T09:26:32;21.13;;;11.83;;
39346;SDS011;26262;49.836;6.632;2022-12-16T09:29:16;21.67;;;11.37;;
39346;SDS011;26262;49.836;6.632;2022-12-16T09:32:00;19.60;;;10.97;;
39346;SDS011;26262;49.836;6.632;2022-12-16T09:34:44;20.93;;;10.23;;
39346;SDS011;26262;49.836;6.632;2022-12-16T09:37:28;19.63;;;10.30;;
39346;SDS011;26262;49.836;6.632;2022-12-16T09:40:13;18.93;;;9.63;;
39346;SDS011;26262;49.836;6.632;2022-12-16T09:43:01;18.92;;;10.35;;
39346;SDS011;26262;49.836;6.632;2022-12-16T09:46:07;20.10;;;9.93;;
39346;SDS011;26262;49.836;6.632;2022-12-16T09:52:20;19.13;;;10.00;;
39346;SDS011;26262;49.836;6.632;2022-12-16T09:55:11;18.53;;;9.87;;
39346;SDS011;26262;49.836;6.632;2022-12-16T09:58:05;18.40;;;9.97;;
39346;SDS011;26262;49.836;6.632;2022-12-16T10:00:50;20.77;;;10.33;;
39346;SDS011;26262;49.836;6.632;2022-12-16T10:03:38;22.57;;;11.70;;
39346;SDS011;26262;49.836;6.632;2022-12-16T10:06:34;35.57;;;15.57;;
39346;SDS011;26262;49.836;6.632;2022-12-16T10:16:03;41.73;;;19.57;;
39346;SDS011;26262;49.836;6.632;2022-12-16T10:22:09;20.63;;;11.00;;
39346;SDS011;26262;49.836;6.632;2022-12-16T10:25:24;24.33;;;12.83;;
39346;SDS011;26262;49.836;6.632;2022-12-16T10:28:15;20.17;;;11.23;;
39346;SDS011;26262;49.836;6.632;2022-12-16T10:31:01;20.10;;;10.33;;
39346;SDS011;26262;49.836;6.632;2022-12-16T10:33:53;20.60;;;11.07;;
39346;SDS011;26262;49.836;6.632;2022-12-16T10:36:38;15.83;;;9.67;;
39346;SDS011;26262;49.836;6.632;2022-12-16T10:39:28;20.63;;;10.47;;
39346;SDS011;26262;49.836;6.632;2022-12-16T10:42:20;15.17;;;9.17;;
39346;SDS011;26262;49.836;6.632;2022-12-16T10:45:30;17.87;;;10.33;;
39346;SDS011;26262;49.836;6.632;2022-12-16T10:48:21;18.23;;;10.80;;
39346;SDS011;26262;49.836;6.632;2022-12-16T10:51:10;21.60;;;10.60;;
39346;SDS011;26262;49.836;6.632;2022-12-16T10:54:00;17.93;;;10.17;;
39346;SDS011;26262;49.836;6.632;2022-12-16T10:57:09;21.77;;;12.40;;
39346;SDS011;26262;49.836;6.632;2022-12-16T11:00:16;18.07;;;10.43;;
39346;SDS011;26262;49.836;6.632;2022-12-16T11:03:24;18.60;;;10.30;;
39346;SDS011;26262;49.836;6.632;2022-12-16T11:06:12;19.53;;;10.43;;
39346;SDS011;26262;49.836;6.632;2022-12-16T11:09:13;20.43;;;9.97;;
39346;SDS011;26262;49.836;6.632;2022-12-16T11:12:16;29.07;;;16.30;;
39346;SDS011;26262;49.836;6.632;2022-12-16T11:15:31;24.90;;;15.23;;
39346;SDS011;26262;49.836;6.632;2022-12-16T11:21:08;58.00;;;30.73;;
39346;SDS011;26262;49.836;6.632;2022-12-16T11:24:17;66.03;;;38.13;;
39346;SDS011;26262;49.836;6.632;2022-12-16T11:27:03;58.03;;;34.37;;
39346;SDS011;26262;49.836;6.632;2022-12-16T11:33:09;49.17;;;29.80;;
39346;SDS011;26262;49.836;6.632;2022-12-16T11:36:04;42.33;;;27.73;;
39346;SDS011;26262;49.836;6.632;2022-12-16T11:38:58;79.13;;;46.20;;
39346;SDS011;26262;49.836;6.632;2022-12-16T11:41:43;60.17;;;38.30;;
39346;SDS011;26262;49.836;6.632;2022-12-16T11:44:35;95.70;;;55.90;;
39346;SDS011;26262;49.836;6.632;2022-12-16T11:50:24;51.87;;;30.50;;
39346;SDS011;26262;49.836;6.632;2022-12-16T11:56:17;57.20;;;34.90;;
39346;SDS011;26262;49.836;6.632;2022-12-16T12:02:13;40.67;;;23.17;;
39346;SDS011;26262;49.836;6.632;2022-12-16T12:05:02;63.20;;;36.28;;
39346;SDS011;26262;49.836;6.632;2022-12-16T12:08:34;54.37;;;33.30;;
39346;SDS011;26262;49.836;6.632;2022-12-16T12:14:15;36.38;;;22.10;;
39346;SDS011;26262;49.836;6.632;2022-12-16T12:23:19;41.43;;;29.03;;
39346;SDS011;26262;49.836;6.632;2022-12-16T12:26:12;69.60;;;43.17;;
39346;SDS011;26262;49.836;6.632;2022-12-16T12:32:16;55.97;;;29.37;;
39346;SDS011;26262;49.836;6.632;2022-12-16T12:35:16;59.67;;;27.73;;
39346;SDS011;26262;49.836;6.632;2022-12-16T12:41:30;53.00;;;23.57;;
39346;SDS011;26262;49.836;6.632;2022-12-16T12:44:22;41.67;;;22.27;;
39346;SDS011;26262;49.836;6.632;2022-12-16T12:47:24;38.03;;;21.63;;
39346;SDS011;26262;49.836;6.632;2022-12-16T12:50:21;37.47;;;20.77;;
39346;SDS011;26262;49.836;6.632;2022-12-16T12:53:34;32.47;;;18.77;;
39346;SDS011;26262;49.836;6.632;2022-12-16T12:59:44;34.23;;;19.17;;
39346;SDS011;26262;49.836;6.632;2022-12-16T13:02:34;33.90;;;23.43;;
39346;SDS011;26262;49.836;6.632;2022-12-16T13:05:46;37.70;;;24.95;;
39346;SDS011;26262;49.836;6.632;2022-12-16T13:08:32;36.43;;;21.60;;
39346;SDS011;26262;49.836;6.632;2022-12-16T13:11:24;36.13;;;23.00;;
39346;SDS011;26262;49.836;6.632;2022-12-16T13:19:59;56.10;;;32.60;;
39346;SDS011;26262;49.836;6.632;2022-12-16T13:22:45;54.10;;;31.73;;
39346;SDS011;26262;49.836;6.632;2022-12-16T13:28:20;45.80;;;28.60;;
39346;SDS011;26262;49.836;6.632;2022-12-16T13:31:09;32.57;;;22.03;;
39346;SDS011;26262;49.836;6.632;2022-12-16T13:33:54;33.73;;;18.40;;
39346;SDS011;26262;49.836;6.632;2022-12-16T13:36:43;28.67;;;18.47;;
39346;SDS011;26262;49.836;6.632;2022-12-16T13:39:35;32.53;;;18.97;;
39346;SDS011;26262;49.836;6.632;2022-12-16T13:42:30;42.27;;;26.23;;
39346;SDS011;26262;49.836;6.632;2022-12-16T13:48:25;39.10;;;22.13;;
39346;SDS011;26262;49.836;6.632;2022-12-16T13:54:22;42.80;;;25.17;;
39346;SDS011;26262;49.836;6.632;2022-12-16T13:57:18;33.67;;;18.10;;
39346;SDS011;26262;49.836;6.632;2022-12-16T14:00:04;23.75;;;11.32;;
39346;SDS011;26262;49.836;6.632;2022-12-16T14:02:59;20.97;;;11.50;;
39346;SDS011;26262;49.836;6.632;2022-12-16T14:05:46;21.17;;;11.17;;
39346;SDS011;26262;49.836;6.632;2022-12-16T14:08:32;19.87;;;9.40;;
39346;SDS011;26262;49.836;6.632;2022-12-16T14:14:26;23.03;;;10.60;;
39346;SDS011;26262;49.836;6.632;2022-12-16T14:17:18;20.75;;;10.93;;
39346;SDS011;26262;49.836;6.632;2022-12-16T14:20:12;25.57;;;12.17;;
39346;SDS011;26262;49.836;6.632;2022-12-16T14:23:20;20.43;;;10.80;;
39346;SDS011;26262;49.836;6.632;2022-12-16T14:26:21;19.37;;;10.90;;
39346;SDS011;26262;49.836;6.632;2022-12-16T14:29:13;21.67;;;9.93;;
39346;SDS011;26262;49.836;6.632;2022-12-16T14:32:16;16.85;;;8.38;;
39346;SDS011;26262;49.836;6.632;2022-12-16T14:35:15;15.97;;;7.20;;
39346;SDS011;26262;49.836;6.632;2022-12-16T14:38:19;12.07;;;7.17;;
39346;SDS011;26262;49.836;6.632;2022-12-16T14:41:09;23.33;;;10.00;;
39346;SDS011;26262;49.836;6.632;2022-12-16T14:44:19;17.13;;;9.03;;
39346;SDS011;26262;49.836;6.632;2022-12-16T14:47:05;25.23;;;15.30;;
39346;SDS011;26262;49.836;6.632;2022-12-16T14:49:58;21.90;;;11.47;;
39346;SDS011;26262;49.836;6.632;2022-12-16T14:52:42;23.33;;;13.37;;
39346;SDS011;26262;49.836;6.632;2022-12-16T14:55:30;26.20;;;13.80;;
39346;SDS011;26262;49.836;6.632;2022-12-16T14:58:17;27.17;;;14.03;;
39346;SDS011;26262;49.836;6.632;2022-12-16T15:03:53;23.60;;;11.37;;
39346;SDS011;26262;49.836;6.632;2022-12-16T15:06:41;16.13;;;8.80;;
39346;SDS011;26262;49.836;6.632;2022-12-16T15:09:29;15.10;;;7.20;;
39346;SDS011;26262;49.836;6.632;2022-12-16T15:12:18;26.17;;;13.43;;
39346;SDS011;26262;49.836;6.632;2022-12-16T15:15:07;19.20;;;8.83;;
39346;SDS011;26262;49.836;6.632;2022-12-16T15:17:56;14.00;;;7.73;;
39346;SDS011;26262;49.836;6.632;2022-12-16T15:20:52;18.70;;;9.43;;
39346;SDS011;26262;49.836;6.632;2022-12-16T15:23:41;19.17;;;10.37;;
39346;SDS011;26262;49.836;6.632;2022-12-16T15:26:28;17.90;;;10.43;;
39346;SDS011;26262;49.836;6.632;2022-12-16T15:38:22;20.50;;;13.00;;
39346;SDS011;26262;49.836;6.632;2022-12-16T15:41:13;16.93;;;9.70;;
39346;SDS011;26262;49.836;6.632;2022-12-16T15:44:03;16.92;;;10.50;;
39346;SDS011;26262;49.836;6.632;2022-12-16T15:46:48;15.83;;;11.73;;
39346;SDS011;26262;49.836;6.632;2022-12-16T15:49:37;14.50;;;9.20;;
39346;SDS011;26262;49.836;6.632;2022-12-16T15:52:28;16.00;;;10.03;;
39346;SDS011;26262;49.836;6.632;2022-12-16T15:58:19;19.03;;;13.13;;
39346;SDS011;26262;49.836;6.632;2022-12-16T16:01:24;19.50;;;10.80;;
39346;SDS011;26262;49.836;6.632;2022-12-16T16:07:02;15.47;;;8.47;;
39346;SDS011;26262;49.836;6.632;2022-12-16T16:09:46;15.73;;;8.50;;
39346;SDS011;26262;49.836;6.632;2022-12-16T16:12:30;13.37;;;7.97;;
39346;SDS011;26262;49.836;6.632;2022-12-16T16:15:14;18.30;;;8.40;;
39346;SDS011;26262;49.836;6.632;2022-12-16T16:18:00;18.97;;;10.17;;
39346;SDS011;26262;49.836;6.632;2022-12-16T16:20:46;16.57;;;8.87;;
39346;SDS011;26262;49.836;6.632;2022-12-16T16:23:31;20.67;;;12.70;;
39346;SDS011;26262;49.836;6.632;2022-12-16T16:26:16;17.93;;;11.67;;
39346;SDS011;26262;49.836;6.632;2022-12-16T16:29:03;20.40;;;11.37;;
39346;SDS011;26262;49.836;6.632;2022-12-16T16:31:48;24.17;;;13.57;;
39346;SDS011;26262;49.836;6.632;2022-12-16T16:34:32;24.40;;;14.57;;
39346;SDS011;26262;49.836;6.632;2022-12-16T16:37:17;20.80;;;12.77;;
39346;SDS011;26262;49.836;6.632;2022-12-16T16:40:15;21.27;;;12.13;;
39346;SDS011;26262;49.836;6.632;2022-12-16T16:43:11;24.17;;;14.00;;
39346;SDS011;26262;49.836;6.632;2022-12-16T16:45:55;29.23;;;16.47;;
39346;SDS011;26262;49.836;6.632;2022-12-16T16:48:39;31.23;;;15.63;;
39346;SDS011;26262;49.836;6.632;2022-12-16T16:51:24;26.07;;;14.27;;
39346;SDS011;26262;49.836;6.632;2022-12-16T16:54:08;28.80;;;17.63;;
39346;SDS011;26262;49.836;6.632;2022-12-16T16:56:52;39.77;;;20.67;;
39346;SDS011;26262;49.836;6.632;2022-12-16T16:59:36;30.10;;;17.63;;
39346;SDS011;26262;49.836;6.632;2022-12-16T17:02:21;27.40;;;16.60;;
39346;SDS011;26262;49.836;6.632;2022-12-16T17:05:06;28.83;;;15.97;;
39346;SDS011;26262;49.836;6.632;2022-12-16T17:07:51;31.17;;;14.13;;
39346;SDS011;26262;49.836;6.632;2022-12-16T17:10:35;24.80;;;14.03;;
39346;SDS011;26262;49.836;6.632;2022-12-16T17:13:20;30.33;;;14.80;;
39346;SDS011;26262;49.836;6.632;2022-12-16T17:16:04;29.33;;;17.30;;
39346;SDS011;26262;49.836;6.632;2022-12-16T17:18:48;31.63;;;18.47;;
39346;SDS011;26262;49.836;6.632;2022-12-16T17:21:33;37.77;;;20.20;;
39346;SDS011;26262;49.836;6.632;2022-12-16T17:24:17;38.73;;;21.20;;
39346;SDS011;26262;49.836;6.632;2022-12-16T17:27:17;33.90;;;20.20;;
39346;SDS011;26262;49.836;6.632;2022-12-16T17:30:04;38.17;;;22.63;;
39346;SDS011;26262;49.836;6.632;2022-12-16T17:33:02;36.30;;;20.67;;
39346;SDS011;26262;49.836;6.632;2022-12-16T17:35:49;34.00;;;18.53;;
39346;SDS011;26262;49.836;6.632;2022-12-16T17:38:36;27.93;;;16.60;;
39346;SDS011;26262;49.836;6.632;2022-12-16T17:41:22;29.37;;;18.27;;
39346;SDS011;26262;49.836;6.632;2022-12-16T17:44:06;34.33;;;17.63;;
39346;SDS011;26262;49.836;6.632;2022-12-16T17:46:50;31.73;;;18.23;;
39346;SDS011;26262;49.836;6.632;2022-12-16T17:49:34;28.27;;;16.37;;
39346;SDS011;26262;49.836;6.632;2022-12-16T17:52:18;27.37;;;14.90;;
39346;SDS011;26262;49.836;6.632;2022-12-16T17:55:02;32.97;;;18.80;;
39346;SDS011;26262;49.836;6.632;2022-12-16T17:57:46;29.50;;;18.77;;
39346;SDS011;26262;49.836;6.632;2022-12-16T18:00:30;25.67;;;16.03;;